Time;durP1;ratioP1;P1;durP2;ratioP2;P2;SDS_P1;SDS_P2;PMS_P1;PMS_P2;Temp;Humidity;BMP_temperature;BMP_pressure;BME280_temperature;BME280_humidity;BME280_pressure;Samples;Min_cycle;Max_cycle;Signal;HPM_P1;HPM_P2
2024/01/16 00:02:20;;;;;;;6.72;3.30;;;;;;;;;;6302669;22;20002;-83
2024/01/16 00:05:06;;;;;;;8.75;4.03;;;;;;;;;;6298965;22;20443;-84
2024/01/16 00:07:51;;;;;;;9.02;3.90;;;;;;;;;;6297153;22;20361;-81
2024/01/16 00:10:36;;;;;;;7.18;3.75;;;;;;;;;;6296601;22;20030;-82
2024/01/16 00:13:22;;;;;;;7.38;4.00;;;;;;;;;;6298325;22;20242;-84
2024/01/16 00:16:07;;;;;;;8.55;3.88;;;;;;;;;;6298957;22;20029;-82
2024/01/16 00:18:52;;;;;;;7.57;3.72;;;;;;;;;;6302581;22;20003;-82
2024/01/16 00:21:38;;;;;;;6.63;3.63;;;;;;;;;;6298962;22;20420;-82
2024/01/16 00:24:23;;;;;;;7.75;3.97;;;;;;;;;;6299345;22;20005;-84
2024/01/16 00:27:08;;;;;;;8.48;3.72;;;;;;;;;;6280229;22;20008;-84
2024/01/16 00:29:54;;;;;;;8.95;3.92;;;;;;;;;;6301266;22;20647;-82
2024/01/16 00:32:39;;;;;;;10.27;4.35;;;;;;;;;;6298584;22;19994;-82
2024/01/16 00:35:24;;;;;;;8.77;3.67;;;;;;;;;;6296103;22;20030;-83
2024/01/16 00:38:09;;;;;;;9.48;4.28;;;;;;;;;;6295083;22;20429;-83
2024/01/16 00:40:55;;;;;;;7.55;3.60;;;;;;;;;;6296754;22;19994;-82
2024/01/16 00:43:40;;;;;;;8.57;3.58;;;;;;;;;;6299218;22;20002;-83
2024/01/16 00:46:26;;;;;;;7.60;3.83;;;;;;;;;;6300401;22;20044;-84
2024/01/16 00:49:11;;;;;;;8.75;3.70;;;;;;;;;;6302817;22;20321;-83
2024/01/16 00:51:56;;;;;;;10.27;3.88;;;;;;;;;;6302387;22;19991;-84
2024/01/16 00:54:42;;;;;;;5.22;3.30;;;;;;;;;;6300558;22;20422;-83
2024/01/16 00:57:28;;;;;;;7.78;3.53;;;;;;;;;;6298765;22;20462;-83
2024/01/16 01:00:13;;;;;;;8.00;3.55;;;;;;;;;;6301305;22;20006;-83
2024/01/16 01:02:58;;;;;;;7.10;3.65;;;;;;;;;;6301820;22;20413;-83
2024/01/16 01:05:43;;;;;;;6.60;3.78;;;;;;;;;;6299095;22;20385;-84
2024/01/16 01:08:29;;;;;;;6.35;2.92;;;;;;;;;;6274870;22;20055;-84
2024/01/16 01:11:14;;;;;;;8.45;3.55;;;;;;;;;;6296678;22;20505;-82
2024/01/16 01:13:59;;;;;;;5.60;2.80;;;;;;;;;;6293610;22;20331;-82
2024/01/16 01:16:44;;;;;;;8.43;3.58;;;;;;;;;;6295074;22;20510;-82
2024/01/16 01:19:29;;;;;;;10.27;4.28;;;;;;;;;;6295441;22;20287;-81
2024/01/16 01:22:15;;;;;;;7.32;3.33;;;;;;;;;;6278021;22;19994;-82
2024/01/16 01:25:00;;;;;;;7.72;3.60;;;;;;;;;;6301861;22;20003;-83
2024/01/16 01:27:51;;;;;;;10.05;3.88;;;;;;;;;;6300943;22;20003;-83
2024/01/16 01:30:36;;;;;;;6.72;2.83;;;;;;;;;;6298814;22;19998;-82
2024/01/16 01:33:22;;;;;;;8.57;3.28;;;;;;;;;;6300347;22;20508;-81
2024/01/16 01:36:07;;;;;;;8.48;4.38;;;;;;;;;;6301556;22;19998;-82
2024/01/16 01:38:52;;;;;;;9.13;3.50;;;;;;;;;;6301717;22;19998;-82
2024/01/16 01:41:38;;;;;;;7.60;3.63;;;;;;;;;;6299744;22;20005;-81
2024/01/16 01:44:24;;;;;;;9.00;3.83;;;;;;;;;;6295188;22;20366;-84
2024/01/16 01:47:10;;;;;;;9.65;3.53;;;;;;;;;;6297591;22;20498;-84
2024/01/16 01:49:55;;;;;;;7.95;4.30;;;;;;;;;;6295632;22;20295;-84
2024/01/16 01:52:40;;;;;;;8.15;4.38;;;;;;;;;;6295053;22;20026;-84
2024/01/16 01:55:26;;;;;;;7.85;3.63;;;;;;;;;;6296247;22;20022;-84
2024/01/16 01:58:11;;;;;;;7.80;4.07;;;;;;;;;;6301047;22;20002;-83
2024/01/16 02:00:56;;;;;;;5.60;2.90;;;;;;;;;;6302478;22;20467;-83
2024/01/16 02:03:45;;;;;;;7.35;3.55;;;;;;;;;;6299688;22;20398;-83
2024/01/16 02:06:30;;;;;;;8.35;3.95;;;;;;;;;;6300273;22;20002;-84
2024/01/16 02:09:16;;;;;;;6.75;3.65;;;;;;;;;;6298445;22;20002;-84
2024/01/16 02:12:01;;;;;;;7.68;3.50;;;;;;;;;;6295032;22;20049;-84
2024/01/16 02:14:47;;;;;;;6.18;3.45;;;;;;;;;;6297570;22;19995;-84
2024/01/16 02:17:32;;;;;;;9.05;3.33;;;;;;;;;;6294679;22;20013;-84
2024/01/16 02:20:17;;;;;;;7.47;3.25;;;;;;;;;;6294961;22;19999;-84
2024/01/16 02:23:03;;;;;;;9.15;3.78;;;;;;;;;;6301549;22;19999;-81
2024/01/16 02:25:48;;;;;;;9.75;3.13;;;;;;;;;;6302007;22;19999;-82
2024/01/16 02:28:34;;;;;;;8.02;3.63;;;;;;;;;;6299973;22;20452;-82
2024/01/16 02:31:19;;;;;;;7.05;3.65;;;;;;;;;;6277763;22;20005;-83
2024/01/16 02:34:04;;;;;;;8.45;3.15;;;;;;;;;;6302781;22;19998;-83
2024/01/16 02:36:49;;;;;;;9.82;4.20;;;;;;;;;;6303374;22;19999;-83
2024/01/16 02:39:35;;;;;;;6.20;3.33;;;;;;;;;;6300850;22;20362;-82
2024/01/16 02:42:20;;;;;;;6.88;3.25;;;;;;;;;;6301809;22;20007;-84
2024/01/16 02:45:05;;;;;;;7.53;3.25;;;;;;;;;;6297668;22;20009;-83
2024/01/16 02:47:50;;;;;;;5.38;2.67;;;;;;;;;;6300160;22;20002;-84
2024/01/16 02:50:36;;;;;;;6.60;3.40;;;;;;;;;;6298672;22;20002;-84
2024/01/16 02:53:21;;;;;;;16.70;4.93;;;;;;;;;;6300128;22;19994;-84
2024/01/16 02:56:07;;;;;;;6.95;3.55;;;;;;;;;;6303909;22;20021;-84
2024/01/16 02:58:52;;;;;;;6.75;2.88;;;;;;;;;;6303726;22;20006;-83
2024/01/16 03:01:38;;;;;;;6.10;2.80;;;;;;;;;;6305887;22;19991;-84
2024/01/16 03:04:23;;;;;;;8.32;3.97;;;;;;;;;;6305180;22;20059;-84
2024/01/16 03:07:08;;;;;;;8.40;3.67;;;;;;;;;;6306844;22;20002;-83
2024/01/16 03:09:54;;;;;;;7.05;2.80;;;;;;;;;;6306538;22;20078;-83
2024/01/16 03:12:39;;;;;;;6.93;3.13;;;;;;;;;;6300869;22;20011;-82
2024/01/16 03:15:24;;;;;;;9.35;3.92;;;;;;;;;;6299915;22;20002;-84
2024/01/16 03:18:09;;;;;;;7.85;3.60;;;;;;;;;;6301282;22;20331;-83
2024/01/16 03:20:55;;;;;;;7.55;3.38;;;;;;;;;;6302343;22;20074;-83
2024/01/16 03:23:40;;;;;;;6.05;3.20;;;;;;;;;;6305370;22;20003;-83
2024/01/16 03:26:25;;;;;;;5.80;2.72;;;;;;;;;;6305930;22;20483;-83
2024/01/16 03:29:11;;;;;;;12.18;3.70;;;;;;;;;;6299886;22;20517;-83
2024/01/16 03:31:56;;;;;;;8.93;3.75;;;;;;;;;;6307430;22;20003;-83
2024/01/16 03:34:41;;;;;;;6.28;3.13;;;;;;;;;;6307394;22;20095;-83
2024/01/16 03:37:26;;;;;;;9.00;3.85;;;;;;;;;;6305468;22;20435;-84
2024/01/16 03:40:12;;;;;;;4.78;2.75;;;;;;;;;;6306906;22;20085;-84
2024/01/16 03:42:57;;;;;;;6.32;3.10;;;;;;;;;;6307663;22;20082;-84
2024/01/16 03:45:43;;;;;;;8.43;3.20;;;;;;;;;;6304112;22;20002;-84
2024/01/16 03:48:28;;;;;;;6.88;2.97;;;;;;;;;;6305439;22;20048;-82
2024/01/16 03:51:19;;;;;;;6.47;3.35;;;;;;;;;;6304944;22;19991;-83
2024/01/16 03:54:04;;;;;;;7.50;3.13;;;;;;;;;;6300005;22;20002;-82
2024/01/16 03:56:50;;;;;;;8.93;3.83;;;;;;;;;;6300952;22;20049;-84
2024/01/16 03:59:39;;;;;;;6.10;2.97;;;;;;;;;;6300283;22;20006;-84
2024/01/16 04:02:24;;;;;;;7.68;3.60;;;;;;;;;;6300900;22;20003;-82
2024/01/16 04:05:09;;;;;;;6.95;3.33;;;;;;;;;;6300802;22;20068;-83
2024/01/16 04:07:56;;;;;;;10.38;3.83;;;;;;;;;;6302137;22;20312;-83
2024/01/16 04:10:44;;;;;;;;;;;;;;;;;;6304019;22;20003;-83
2024/01/16 04:13:29;;;;;;;5.90;3.03;;;;;;;;;;6279489;22;19925;-85
2024/01/16 04:16:15;;;;;;;6.57;3.20;;;;;;;;;;6302976;22;20048;-84
2024/01/16 04:19:01;;;;;;;9.60;3.42;;;;;;;;;;6281165;22;19999;-84
2024/01/16 04:21:46;;;;;;;7.03;3.10;;;;;;;;;;6301507;22;20453;-84
2024/01/16 04:24:31;;;;;;;6.82;2.97;;;;;;;;;;6297858;22;20026;-84
2024/01/16 04:27:16;;;;;;;7.60;3.70;;;;;;;;;;6298612;22;19994;-83
2024/01/16 04:30:02;;;;;;;6.97;2.90;;;;;;;;;;6296590;22;20022;-83
2024/01/16 04:32:48;;;;;;;7.78;3.80;;;;;;;;;;6298708;22;20004;-83
2024/01/16 04:35:33;;;;;;;6.82;3.53;;;;;;;;;;6297907;22;20056;-85
2024/01/16 04:38:18;;;;;;;8.57;3.80;;;;;;;;;;6298128;22;20506;-83
2024/01/16 04:41:04;;;;;;;7.70;3.67;;;;;;;;;;6302944;22;19998;-82
2024/01/16 04:43:50;;;;;;;7.68;3.70;;;;;;;;;;6302539;22;20034;-82
2024/01/16 04:46:35;;;;;;;6.40;3.15;;;;;;;;;;6300906;22;20097;-82
2024/01/16 04:49:20;;;;;;;7.45;2.83;;;;;;;;;;6300063;22;20003;-82
2024/01/16 04:52:06;;;;;;;10.20;3.58;;;;;;;;;;6301733;22;20056;-82
2024/01/16 04:54:54;;;;;;;8.13;3.55;;;;;;;;;;6301728;22;20517;-82
2024/01/16 04:57:39;;;;;;;7.35;3.45;;;;;;;;;;6298405;22;20006;-81
2024/01/16 05:00:24;;;;;;;10.10;3.42;;;;;;;;;;6301070;22;20005;-82
2024/01/16 05:03:10;;;;;;;8.75;3.13;;;;;;;;;;6299326;22;20003;-82
2024/01/16 05:05:56;;;;;;;7.75;3.63;;;;;;;;;;6295504;22;20525;-83
2024/01/16 05:08:42;;;;;;;11.32;4.15;;;;;;;;;;6296088;22;20003;-82
2024/01/16 05:11:27;;;;;;;5.38;3.35;;;;;;;;;;6295634;22;20010;-81
2024/01/16 05:14:13;;;;;;;4.95;2.60;;;;;;;;;;6294355;22;20350;-84
2024/01/16 05:16:58;;;;;;;5.95;3.00;;;;;;;;;;6301169;22;20418;-84
2024/01/16 05:19:46;;;;;;;9.85;4.13;;;;;;;;;;6303430;22;20040;-83
2024/01/16 05:22:31;;;;;;;7.78;3.60;;;;;;;;;;6298171;22;20009;-84
2024/01/16 05:25:17;;;;;;;6.35;2.88;;;;;;;;;;6302691;22;20038;-83
2024/01/16 05:28:03;;;;;;;9.38;3.13;;;;;;;;;;6302999;22;20339;-81
2024/01/16 05:30:48;;;;;;;7.40;3.25;;;;;;;;;;6302528;22;20061;-82
2024/01/16 05:33:33;;;;;;;6.95;3.22;;;;;;;;;;6299863;22;20017;-82
2024/01/16 05:36:18;;;;;;;14.88;3.83;;;;;;;;;;6302742;22;20006;-82
2024/01/16 05:39:13;;;;;;;5.97;3.10;;;;;;;;;;6299157;22;20308;-85
2024/01/16 05:42:01;;;;;;;12.35;4.22;;;;;;;;;;6294611;22;19995;-85
2024/01/16 05:44:46;;;;;;;7.53;3.08;;;;;;;;;;6295570;22;20021;-84
2024/01/16 05:47:32;;;;;;;10.73;3.15;;;;;;;;;;6296582;22;20051;-84
2024/01/16 05:50:18;;;;;;;8.52;3.53;;;;;;;;;;6296600;22;19999;-84
2024/01/16 05:53:03;;;;;;;7.53;3.38;;;;;;;;;;6302136;22;20006;-83
2024/01/16 05:55:48;;;;;;;8.55;3.15;;;;;;;;;;6301549;22;20013;-84
2024/01/16 05:58:38;;;;;;;7.68;3.90;;;;;;;;;;6302976;22;20534;-84
2024/01/16 06:01:23;;;;;;;7.97;3.38;;;;;;;;;;6301579;22;19999;-84
2024/01/16 06:04:09;;;;;;;5.20;2.80;;;;;;;;;;6281148;22;20296;-84
2024/01/16 06:06:54;;;;;;;9.60;3.47;;;;;;;;;;6302996;22;20465;-83
2024/01/16 06:09:42;;;;;;;7.10;3.30;;;;;;;;;;6302318;22;19995;-84
2024/01/16 06:12:27;;;;;;;6.28;3.08;;;;;;;;;;6302376;22;20018;-84
2024/01/16 06:15:12;;;;;;;12.70;3.72;;;;;;;;;;6304138;22;20601;-84
2024/01/16 06:17:58;;;;;;;8.75;3.53;;;;;;;;;;6305413;22;20468;-83
2024/01/16 06:20:43;;;;;;;9.60;4.00;;;;;;;;;;6303830;22;20056;-84
2024/01/16 06:23:29;;;;;;;8.45;3.67;;;;;;;;;;6299589;22;20458;-83
2024/01/16 06:26:14;;;;;;;11.90;4.00;;;;;;;;;;6304884;22;20474;-85
2024/01/16 06:28:59;;;;;;;13.50;3.65;;;;;;;;;;6304345;22;19997;-84
2024/01/16 06:31:44;;;;;;;8.18;3.80;;;;;;;;;;6324469;22;20013;-85
2024/01/16 06:34:30;;;;;;;11.25;4.43;;;;;;;;;;6327594;22;20002;-83
2024/01/16 06:37:15;;;;;;;6.85;3.17;;;;;;;;;;6308536;22;19995;-83
2024/01/16 06:40:00;;;;;;;9.40;3.80;;;;;;;;;;6332557;22;20018;-85
2024/01/16 06:42:48;;;;;;;13.27;4.72;;;;;;;;;;6314545;22;19986;-84
2024/01/16 06:45:34;;;;;;;12.52;4.93;;;;;;;;;;6328665;22;20003;-85
2024/01/16 06:48:19;;;;;;;8.85;3.60;;;;;;;;;;6317957;22;20009;-85
2024/01/16 06:51:05;;;;;;;11.70;3.60;;;;;;;;;;6307889;22;20003;-86
2024/01/16 06:53:50;;;;;;;12.23;4.28;;;;;;;;;;6305386;22;20425;-85
2024/01/16 06:56:36;;;;;;;8.18;3.55;;;;;;;;;;6304057;22;20029;-85
2024/01/16 06:59:21;;;;;;;6.53;3.42;;;;;;;;;;6305098;22;19998;-85
2024/01/16 07:02:07;;;;;;;7.68;3.78;;;;;;;;;;6304464;22;20011;-85
2024/01/16 07:04:53;;;;;;;9.88;3.47;;;;;;;;;;6304091;22;20386;-85
2024/01/16 07:07:38;;;;;;;14.38;3.90;;;;;;;;;;6275017;22;20545;-86
2024/01/16 07:10:24;;;;;;;8.88;3.78;;;;;;;;;;6297001;22;20064;-86
2024/01/16 07:13:09;;;;;;;5.82;3.00;;;;;;;;;;6296862;22;20376;-86
2024/01/16 07:15:55;;;;;;;8.02;3.17;;;;;;;;;;6300296;22;20009;-85
2024/01/16 07:18:40;;;;;;;6.70;2.78;;;;;;;;;;6295791;22;20331;-86
2024/01/16 07:21:25;;;;;;;7.28;3.40;;;;;;;;;;6299402;22;20416;-87
2024/01/16 07:24:12;;;;;;;4.97;2.83;;;;;;;;;;6301929;22;20504;-86
2024/01/16 07:26:58;;;;;;;9.98;3.58;;;;;;;;;;6302606;22;19995;-87
2024/01/16 07:29:43;;;;;;;7.28;3.42;;;;;;;;;;6302554;22;20002;-86
2024/01/16 07:32:28;;;;;;;9.77;3.28;;;;;;;;;;6301293;22;19995;-86
2024/01/16 07:35:14;;;;;;;8.43;3.40;;;;;;;;;;6303063;22;19995;-84
2024/01/16 07:37:59;;;;;;;7.10;3.60;;;;;;;;;;6304445;22;20215;-89
2024/01/16 07:40:44;;;;;;;7.65;3.63;;;;;;;;;;6301580;22;20007;-87
2024/01/16 07:43:32;;;;;;;9.95;3.30;;;;;;;;;;6304568;22;20064;-86
2024/01/16 07:46:18;;;;;;;8.27;3.35;;;;;;;;;;6305216;22;19995;-87
2024/01/16 07:49:03;;;;;;;5.82;2.97;;;;;;;;;;6300036;22;20025;-85
2024/01/16 07:51:48;;;;;;;5.20;2.88;;;;;;;;;;6297714;22;19998;-84
2024/01/16 07:54:33;;;;;;;6.82;3.20;;;;;;;;;;6296423;22;20082;-87
2024/01/16 07:57:19;;;;;;;12.18;3.40;;;;;;;;;;6299547;22;20031;-86
2024/01/16 08:00:05;;;;;;;7.47;3.58;;;;;;;;;;6297360;22;20446;-86
2024/01/16 08:02:50;;;;;;;9.13;3.45;;;;;;;;;;6296827;22;20037;-86
2024/01/16 08:05:36;;;;;;;8.20;3.08;;;;;;;;;;6297160;22;19999;-86
2024/01/16 08:08:21;;;;;;;8.18;3.22;;;;;;;;;;6299202;22;20033;-87
2024/01/16 08:11:07;;;;;;;10.68;3.55;;;;;;;;;;6296947;22;20048;-86
2024/01/16 08:13:52;;;;;;;10.32;3.88;;;;;;;;;;6297314;22;20010;-87
2024/01/16 08:16:37;;;;;;;8.98;4.20;;;;;;;;;;6296916;22;20006;-84
2024/01/16 08:19:22;;;;;;;5.93;3.05;;;;;;;;;;6295825;22;20003;-83
2024/01/16 08:22:08;;;;;;;7.45;3.20;;;;;;;;;;6302792;22;20334;-83
2024/01/16 08:24:53;;;;;;;7.45;2.80;;;;;;;;;;6301579;22;20002;-82
2024/01/16 08:27:39;;;;;;;7.35;2.90;;;;;;;;;;6302807;22;20022;-84
2024/01/16 08:30:24;;;;;;;9.18;2.97;;;;;;;;;;6300267;22;19995;-84
2024/01/16 08:33:10;;;;;;;7.82;3.25;;;;;;;;;;6304916;22;20013;-83
2024/01/16 08:35:55;;;;;;;8.80;3.20;;;;;;;;;;6316496;22;20212;-87
2024/01/16 08:38:40;;;;;;;7.10;3.40;;;;;;;;;;6304242;22;20002;-85
2024/01/16 08:41:26;;;;;;;8.85;3.95;;;;;;;;;;6303116;22;20006;-86
2024/01/16 08:44:11;;;;;;;7.43;3.75;;;;;;;;;;6310586;22;20026;-88
2024/01/16 08:46:57;;;;;;;9.50;3.05;;;;;;;;;;6300061;22;19991;-85
2024/01/16 08:49:43;;;;;;;12.57;3.25;;;;;;;;;;6308370;22;20480;-88
2024/01/16 08:52:28;;;;;;;7.25;3.53;;;;;;;;;;6308566;22;19999;-85
2024/01/16 08:55:14;;;;;;;6.43;3.40;;;;;;;;;;6311701;22;20048;-88
2024/01/16 08:57:59;;;;;;;7.53;2.83;;;;;;;;;;6304411;22;19995;-83
2024/01/16 09:00:44;;;;;;;5.97;2.72;;;;;;;;;;6302650;22;20856;-85
2024/01/16 09:03:29;;;;;;;9.52;2.97;;;;;;;;;;6301408;22;20013;-81
2024/01/16 09:06:15;;;;;;;5.85;2.60;;;;;;;;;;6301851;22;20077;-81
2024/01/16 09:09:00;;;;;;;5.60;3.00;;;;;;;;;;6301924;22;20053;-80
2024/01/16 09:11:45;;;;;;;5.95;2.70;;;;;;;;;;6294034;22;20025;-83
2024/01/16 09:14:30;;;;;;;6.85;3.28;;;;;;;;;;6295879;22;20010;-83
2024/01/16 09:17:15;;;;;;;7.10;2.60;;;;;;;;;;6297814;22;20009;-83
2024/01/16 09:20:01;;;;;;;6.05;2.30;;;;;;;;;;6297330;22;20472;-82
2024/01/16 09:22:46;;;;;;;8.80;3.30;;;;;;;;;;6301460;22;20010;-84
2024/01/16 09:25:31;;;;;;;6.57;3.25;;;;;;;;;;6301857;22;19999;-85
2024/01/16 09:28:16;;;;;;;7.70;2.88;;;;;;;;;;6299602;22;19999;-84
2024/01/16 09:31:02;;;;;;;29.58;3.30;;;;;;;;;;6301701;22;20023;-87
2024/01/16 09:33:47;;;;;;;7.25;2.90;;;;;;;;;;6304164;22;20003;-86
2024/01/16 09:36:32;;;;;;;8.27;2.97;;;;;;;;;;6301833;22;20213;-85
2024/01/16 09:39:17;;;;;;;6.00;2.55;;;;;;;;;;6308277;22;19999;-86
2024/01/16 09:42:03;;;;;;;7.03;2.85;;;;;;;;;;6298322;22;20013;-87
2024/01/16 09:44:48;;;;;;;4.30;2.40;;;;;;;;;;6306188;22;20007;-84
2024/01/16 09:47:34;;;;;;;7.15;2.78;;;;;;;;;;6299001;22;20242;-85
2024/01/16 09:50:19;;;;;;;6.57;2.97;;;;;;;;;;6301875;22;19995;-85
2024/01/16 09:53:04;;;;;;;5.43;2.28;;;;;;;;;;6299603;22;20025;-85
2024/01/16 09:55:51;;;;;;;6.88;2.80;;;;;;;;;;6305315;22;20003;-86
2024/01/16 09:58:37;;;;;;;5.68;2.90;;;;;;;;;;6306130;22;20022;-87
2024/01/16 10:01:23;;;;;;;6.07;2.63;;;;;;;;;;6302332;22;20081;-87
2024/01/16 10:04:09;;;;;;;5.72;2.38;;;;;;;;;;6307303;22;20013;-89
2024/01/16 10:06:54;;;;;;;6.40;3.05;;;;;;;;;;6306105;22;20000;-85
2024/01/16 10:09:39;;;;;;;5.57;2.38;;;;;;;;;;6302887;22;19995;-85
2024/01/16 10:12:25;;;;;;;4.55;2.15;;;;;;;;;;6303698;22;20040;-83
2024/01/16 10:15:10;;;;;;;5.47;2.65;;;;;;;;;;6306536;22;20474;-86
2024/01/16 10:17:56;;;;;;;6.65;2.58;;;;;;;;;;6304179;22;20022;-84
2024/01/16 10:20:41;;;;;;;3.72;1.90;;;;;;;;;;6302347;22;20491;-85
2024/01/16 10:23:27;;;;;;;9.50;3.00;;;;;;;;;;6298701;22;20005;-85
2024/01/16 10:26:13;;;;;;;7.47;3.00;;;;;;;;;;6296751;22;20336;-85
2024/01/16 10:29:03;;;;;;;5.20;2.65;;;;;;;;;;6298142;22;20014;-85
2024/01/16 10:31:48;;;;;;;5.50;2.42;;;;;;;;;;6299653;22;20431;-83
2024/01/16 10:34:34;;;;;;;7.03;2.20;;;;;;;;;;6296992;22;20010;-84
2024/01/16 10:37:19;;;;;;;7.88;2.58;;;;;;;;;;6303369;22;20005;-83
2024/01/16 10:40:05;;;;;;;6.15;3.10;;;;;;;;;;6302898;22;20452;-83
2024/01/16 10:43:01;;;;;;;7.53;3.00;;;;;;;;;;6303344;22;19994;-83
2024/01/16 10:45:46;;;;;;;6.57;2.72;;;;;;;;;;6303557;22;19994;-83
2024/01/16 10:48:31;;;;;;;8.05;2.90;;;;;;;;;;6301808;22;20086;-84
2024/01/16 10:51:17;;;;;;;8.57;3.15;;;;;;;;;;6302978;22;20002;-82
2024/01/16 10:54:05;;;;;;;9.00;3.28;;;;;;;;;;6303101;22;20006;-83
2024/01/16 10:56:50;;;;;;;6.00;2.63;;;;;;;;;;6303967;22;20320;-84
2024/01/16 10:59:41;;;;;;;12.63;4.00;;;;;;;;;;6302496;22;20081;-84
2024/01/16 11:02:32;;;;;;;7.50;2.88;;;;;;;;;;6301076;22;19999;-84
2024/01/16 11:05:18;;;;;;;5.30;2.85;;;;;;;;;;6299245;22;20013;-83
2024/01/16 11:08:05;;;;;;;6.25;2.50;;;;;;;;;;6299091;22;20317;-84
2024/01/16 11:10:50;;;;;;;8.25;2.40;;;;;;;;;;6303622;22;19999;-83
2024/01/16 11:13:36;;;;;;;5.55;2.17;;;;;;;;;;6303298;22;20470;-83
2024/01/16 11:16:22;;;;;;;8.63;2.92;;;;;;;;;;6308644;22;19999;-87
2024/01/16 11:19:08;;;;;;;7.68;2.80;;;;;;;;;;6311098;22;20002;-92
2024/01/16 11:21:54;;;;;;;7.15;2.72;;;;;;;;;;6313759;22;20002;-92
2024/01/16 11:24:39;;;;;;;6.55;2.70;;;;;;;;;;6311463;22;20002;-91
2024/01/16 11:27:24;;;;;;;6.05;1.98;;;;;;;;;;6305397;22;19995;-91
2024/01/16 11:30:11;;;;;;;5.38;2.33;;;;;;;;;;6305593;22;20475;-90
2024/01/16 11:32:56;;;;;;;8.55;2.22;;;;;;;;;;6304899;22;20392;-90
2024/01/16 11:35:41;;;;;;;4.03;2.30;;;;;;;;;;6308899;22;20287;-91
2024/01/16 11:38:29;;;;;;;11.23;2.92;;;;;;;;;;6306939;22;20048;-91
2024/01/16 11:41:34;;;;;;;10.20;2.83;;;;;;;;;;6306214;22;20005;-90
2024/01/16 11:44:38;;;;;;;5.78;2.25;;;;;;;;;;6307382;22;20034;-91
2024/01/16 11:47:24;;;;;;;5.57;1.88;;;;;;;;;;6307478;22;20088;-90
2024/01/16 11:50:10;;;;;;;4.00;1.98;;;;;;;;;;6308999;22;20002;-91
2024/01/16 11:52:57;;;;;;;7.10;2.22;;;;;;;;;;6307550;22;19995;-91
2024/01/16 11:56:09;;;;;;;5.97;2.05;;;;;;;;;;6305948;22;20010;-90
2024/01/16 11:59:08;;;;;;;12.05;2.42;;;;;;;;;;6308471;22;20073;-90
2024/01/16 12:01:57;;;;;;;6.18;3.38;;;;;;;;;;6316885;22;20078;-91
2024/01/16 12:04:42;;;;;;;9.68;3.15;;;;;;;;;;6308639;22;20399;-90
2024/01/16 12:07:27;;;;;;;6.85;2.95;;;;;;;;;;6313939;22;20402;-81
2024/01/16 12:10:13;;;;;;;7.97;2.72;;;;;;;;;;6297673;22;20006;-76
2024/01/16 12:12:59;;;;;;;6.82;2.25;;;;;;;;;;6302302;22;20018;-76
2024/01/16 12:15:46;;;;;;;8.88;3.28;;;;;;;;;;6302650;22;19999;-76
2024/01/16 12:18:31;;;;;;;3.45;2.33;;;;;;;;;;6299827;22;20006;-76
2024/01/16 12:21:17;;;;;;;9.55;1.92;;;;;;;;;;6302580;22;19999;-78
2024/01/16 12:24:05;;;;;;;4.82;2.28;;;;;;;;;;6302849;22;20009;-79
2024/01/16 12:26:50;;;;;;;7.72;3.08;;;;;;;;;;6302395;22;20049;-79
2024/01/16 12:29:36;;;;;;;9.38;3.05;;;;;;;;;;6301413;22;20022;-79
2024/01/16 12:32:22;;;;;;;4.85;1.98;;;;;;;;;;6303110;22;20066;-75
2024/01/16 12:35:07;;;;;;;7.22;2.17;;;;;;;;;;6301852;22;20002;-79
2024/01/16 12:37:59;;;;;;;3.92;1.90;;;;;;;;;;6299091;22;19999;-75
2024/01/16 12:40:47;;;;;;;4.13;1.70;;;;;;;;;;6298689;22;20006;-89
2024/01/16 12:43:33;;;;;;;3.33;1.80;;;;;;;;;;6303719;22;20029;-87
2024/01/16 12:46:19;;;;;;;7.20;1.95;;;;;;;;;;6309197;22;20359;-89
2024/01/16 12:49:06;;;;;;;3.78;1.73;;;;;;;;;;6312824;22;20079;-87
2024/01/16 12:52:12;;;;;;;3.33;1.50;;;;;;;;;;6307593;22;20343;-88
2024/01/16 12:55:08;;;;;;;5.53;2.00;;;;;;;;;;6313047;22;19995;-87
2024/01/16 12:58:12;;;;;;;4.95;2.03;;;;;;;;;;6311091;22;19995;-87
2024/01/16 13:01:17;;;;;;;7.97;1.80;;;;;;;;;;6318770;22;20002;-88
2024/01/16 13:04:06;;;;;;;5.97;2.58;;;;;;;;;;6317680;22;20026;-86
2024/01/16 13:07:00;;;;;;;5.80;2.22;;;;;;;;;;6318408;22;19994;-89
2024/01/16 13:09:45;;;;;;;3.95;2.13;;;;;;;;;;6304261;22;19999;-81
2024/01/16 13:12:33;;;;;;;8.32;2.33;;;;;;;;;;6297761;22;20014;-81
2024/01/16 13:15:18;;;;;;;4.57;1.98;;;;;;;;;;6301261;22;19998;-81
2024/01/16 13:18:04;;;;;;;4.53;2.40;;;;;;;;;;6301786;22;19998;-81
2024/01/16 13:20:50;;;;;;;7.78;2.40;;;;;;;;;;6303723;22;20017;-79
2024/01/16 13:23:35;;;;;;;5.13;1.80;;;;;;;;;;6299389;22;20291;-79
2024/01/16 13:26:20;;;;;;;4.68;1.83;;;;;;;;;;6302533;22;20001;-79
2024/01/16 13:29:09;;;;;;;4.95;1.90;;;;;;;;;;6303454;22;20005;-80
2024/01/16 13:31:55;;;;;;;8.05;2.58;;;;;;;;;;6302060;22;19995;-80
2024/01/16 13:34:46;;;;;;;4.00;2.03;;;;;;;;;;6295785;22;20003;-80
2024/01/16 13:37:32;;;;;;;7.28;2.90;;;;;;;;;;6295478;22;20545;-81
2024/01/16 13:40:18;;;;;;;8.05;1.98;;;;;;;;;;6296392;22;20073;-81
2024/01/16 13:43:04;;;;;;;8.20;2.78;;;;;;;;;;6295388;22;20430;-81
2024/01/16 13:45:49;;;;;;;6.47;2.70;;;;;;;;;;6302865;22;20005;-83
2024/01/16 13:48:35;;;;;;;5.45;2.70;;;;;;;;;;6310021;22;19998;-86
2024/01/16 13:51:20;;;;;;;7.32;1.95;;;;;;;;;;6310570;22;20006;-89
2024/01/16 13:54:06;;;;;;;19.25;2.35;;;;;;;;;;6286406;22;20013;-86
2024/01/16 13:56:54;;;;;;;4.65;2.10;;;;;;;;;;6306209;22;20006;-88
2024/01/16 13:59:40;;;;;;;6.65;2.72;;;;;;;;;;6302801;22;20009;-89
2024/01/16 14:02:25;;;;;;;6.90;2.13;;;;;;;;;;6304153;22;20022;-87
2024/01/16 14:05:11;;;;;;;4.03;1.77;;;;;;;;;;6306618;22;20055;-89
2024/01/16 14:07:57;;;;;;;7.78;2.08;;;;;;;;;;6298752;22;19995;-89
2024/01/16 14:10:44;;;;;;;5.53;2.05;;;;;;;;;;6301832;22;19991;-90
2024/01/16 14:13:30;;;;;;;6.13;2.28;;;;;;;;;;6301458;22;20065;-90
2024/01/16 14:16:15;;;;;;;4.03;1.80;;;;;;;;;;6307225;22;20030;-89
2024/01/16 14:19:00;;;;;;;7.05;2.22;;;;;;;;;;6307788;22;20001;-89
2024/01/16 14:21:46;;;;;;;8.82;2.28;;;;;;;;;;6308694;22;20079;-89
2024/01/16 14:24:32;;;;;;;6.75;1.70;;;;;;;;;;6303947;22;20028;-88
2024/01/16 14:27:17;;;;;;;6.82;2.33;;;;;;;;;;6305771;22;20513;-89
2024/01/16 14:30:03;;;;;;;5.25;2.75;;;;;;;;;;6308671;22;20003;-88
2024/01/16 14:32:48;;;;;;;4.90;1.90;;;;;;;;;;6311760;22;19998;-87
2024/01/16 14:35:33;;;;;;;8.73;2.50;;;;;;;;;;6309610;22;20069;-89
2024/01/16 14:38:19;;;;;;;6.80;3.10;;;;;;;;;;6315967;22;19991;-88
2024/01/16 14:41:04;;;;;;;9.20;2.45;;;;;;;;;;6309931;22;20650;-89
2024/01/16 14:43:49;;;;;;;8.98;2.17;;;;;;;;;;6323081;22;19999;-87
2024/01/16 14:46:40;;;;;;;7.07;2.97;;;;;;;;;;6328696;22;20028;-88
2024/01/16 14:49:31;;;;;;;7.68;2.83;;;;;;;;;;6337142;22;19991;-87
2024/01/16 14:52:17;;;;;;;8.45;2.88;;;;;;;;;;6329231;22;20017;-88
2024/01/16 14:55:09;;;;;;;6.80;2.45;;;;;;;;;;6336349;22;19995;-88
2024/01/16 14:57:59;;;;;;;14.27;2.28;;;;;;;;;;6320402;22;20352;-89
2024/01/16 15:00:48;;;;;;;7.22;2.75;;;;;;;;;;6312000;22;20027;-87
2024/01/16 15:03:33;;;;;;;10.15;2.58;;;;;;;;;;6318593;22;20003;-88
2024/01/16 15:06:18;;;;;;;4.70;2.15;;;;;;;;;;6308926;22;20457;-88
2024/01/16 15:09:04;;;;;;;9.20;3.05;;;;;;;;;;6307735;22;20002;-86
2024/01/16 15:11:49;;;;;;;9.88;3.50;;;;;;;;;;6311343;22;20015;-86
2024/01/16 15:14:34;;;;;;;11.93;3.22;;;;;;;;;;6282460;22;20057;-89
2024/01/16 15:17:20;;;;;;;6.40;2.58;;;;;;;;;;6306059;22;20327;-87
2024/01/16 15:20:08;;;;;;;7.15;2.78;;;;;;;;;;6301614;22;20629;-88
2024/01/16 15:22:53;;;;;;;7.85;2.88;;;;;;;;;;6301877;22;20037;-87
2024/01/16 15:25:38;;;;;;;8.38;3.15;;;;;;;;;;6300022;22;20002;-87
2024/01/16 15:28:24;;;;;;;5.53;2.45;;;;;;;;;;6300722;22;20001;-92
2024/01/16 15:31:09;;;;;;;5.80;2.50;;;;;;;;;;6301979;22;19995;-87
2024/01/16 15:33:55;;;;;;;8.57;2.88;;;;;;;;;;6307318;22;19999;-88
2024/01/16 15:36:40;;;;;;;6.55;1.98;;;;;;;;;;6311700;22;20474;-87
2024/01/16 15:39:25;;;;;;;6.78;2.40;;;;;;;;;;6291512;22;19999;-89
2024/01/16 15:42:10;;;;;;;8.23;2.10;;;;;;;;;;6323772;22;19986;-90
2024/01/16 15:44:55;;;;;;;13.18;2.47;;;;;;;;;;6325905;22;20005;-89
2024/01/16 15:47:41;;;;;;;7.70;2.63;;;;;;;;;;6320522;22;19998;-90
2024/01/16 15:50:28;;;;;;;5.88;2.33;;;;;;;;;;6306988;22;19995;-89
2024/01/16 15:53:15;;;;;;;20.27;4.55;;;;;;;;;;6304171;22;19995;-89
2024/01/16 15:56:00;;;;;;;16.50;3.38;;;;;;;;;;6300320;22;20069;-89
2024/01/16 15:58:45;;;;;;;7.93;2.70;;;;;;;;;;6298988;22;20048;-89
2024/01/16 16:01:31;;;;;;;13.13;3.63;;;;;;;;;;6300102;22;20044;-90
2024/01/16 16:04:17;;;;;;;10.85;3.78;;;;;;;;;;6299518;22;20335;-91
2024/01/16 16:07:03;;;;;;;16.38;3.50;;;;;;;;;;6306602;22;20078;-91
2024/01/16 16:09:48;;;;;;;8.48;3.22;;;;;;;;;;6305861;22;20069;-90
2024/01/16 16:12:33;;;;;;;8.98;2.90;;;;;;;;;;6303718;22;20461;-90
2024/01/16 16:15:18;;;;;;;10.50;3.30;;;;;;;;;;6304801;22;19999;-84
2024/01/16 16:18:04;;;;;;;9.88;3.15;;;;;;;;;;6303161;22;20010;-84
2024/01/16 16:20:49;;;;;;;10.30;3.42;;;;;;;;;;6303690;22;19998;-81
2024/01/16 16:23:35;;;;;;;10.65;3.40;;;;;;;;;;6301456;22;20013;-84
2024/01/16 16:26:29;;;;;;;6.72;2.85;;;;;;;;;;6303907;22;20025;-84
2024/01/16 16:29:14;;;;;;;8.40;3.85;;;;;;;;;;6305003;22;19997;-81
2024/01/16 16:31:59;;;;;;;9.88;3.15;;;;;;;;;;6303736;22;20060;-83
2024/01/16 16:34:45;;;;;;;10.45;3.58;;;;;;;;;;6300606;22;20085;-82